Time;durP1;ratioP1;P1;durP2;ratioP2;P2;SDS_P1;SDS_P2;PMS_P1;PMS_P2;Temp;Humidity;BMP_temperature;BMP_pressure;BME280_temperature;BME280_humidity;BME280_pressure;Samples;Min_cycle;Max_cycle;Signal;HPM_P1;HPM_P2
2021/08/21 00:01:52;;;;;;;5.80;5.30;;;15.00;99.90;;;;;;4915289;29;20203;-75
2021/08/21 00:04:20;;;;;;;5.80;5.20;;;15.00;99.90;;;;;;4906520;29;20196;-75
2021/08/21 00:06:48;;;;;;;5.87;5.07;;;15.00;99.90;;;;;;4921599;28;20353;-75
2021/08/21 00:09:14;;;;;;;6.20;5.53;;;15.00;99.90;;;;;;4913774;29;20648;-74
2021/08/21 00:11:40;;;;;;;5.37;4.93;;;14.90;99.90;;;;;;4908924;29;20683;-74
2021/08/21 00:14:08;;;;;;;5.77;5.33;;;14.90;99.90;;;;;;4907175;29;20308;-74
2021/08/21 00:16:33;;;;;;;5.63;5.13;;;14.90;99.90;;;;;;4906732;28;20231;-74
2021/08/21 00:19:00;;;;;;;6.20;4.70;;;14.90;99.90;;;;;;4909403;29;20620;-74
2021/08/21 00:21:26;;;;;;;6.17;5.57;;;14.80;99.90;;;;;;4910141;29;20192;-74
2021/08/21 00:23:54;;;;;;;6.03;5.10;;;14.80;99.90;;;;;;4908147;29;20635;-75
2021/08/21 00:26:20;;;;;;;6.53;5.73;;;14.80;99.90;;;;;;4912055;28;20247;-75
2021/08/21 00:28:45;;;;;;;5.70;5.20;;;14.70;99.90;;;;;;4913341;29;20624;-74
2021/08/21 00:31:11;;;;;;;5.33;4.80;;;14.70;99.90;;;;;;4908285;29;20227;-75
2021/08/21 00:33:36;;;;;;;8.03;5.20;;;14.60;99.90;;;;;;4905297;29;20208;-75
2021/08/21 00:36:04;;;;;;;5.90;5.30;;;14.60;99.90;;;;;;4909469;28;20325;-75
2021/08/21 00:38:32;;;;;;;5.13;4.73;;;14.60;99.90;;;;;;4908773;29;20202;-75
2021/08/21 00:40:58;;;;;;;5.53;5.03;;;14.40;99.90;;;;;;4910958;29;23125;-75
2021/08/21 00:43:27;;;;;;;6.47;5.80;;;14.60;99.90;;;;;;4908006;29;21288;-75
2021/08/21 00:45:55;;;;;;;5.20;4.70;;;14.50;99.90;;;;;;4910747;28;20672;-75
2021/08/21 00:48:23;;;;;;;5.60;5.00;;;14.50;99.90;;;;;;4911667;29;20646;-74
2021/08/21 00:51:01;;;;;;;5.43;4.83;;;14.50;99.90;;;;;;4920214;29;20671;-74
2021/08/21 00:53:29;;;;;;;5.27;4.77;;;14.50;99.90;;;;;;4915887;29;20648;-74
2021/08/21 00:55:58;;;;;;;8.20;5.27;;;14.40;99.90;;;;;;4912204;28;20655;-74
2021/08/21 00:58:26;;;;;;;5.60;5.13;;;14.40;99.90;;;;;;4914843;29;20724;-74
2021/08/21 01:01:11;;;;;;;5.17;4.73;;;14.40;99.90;;;;;;4917399;29;20722;-74
2021/08/21 01:03:37;;;;;;;5.43;4.93;;;14.40;99.90;;;;;;4915311;29;20628;-75
2021/08/21 01:06:05;;;;;;;6.07;5.47;;;14.40;99.90;;;;;;4909015;28;21228;-75
2021/08/21 01:08:32;;;;;;;5.57;5.07;;;14.40;99.90;;;;;;4912272;29;20271;-74
2021/08/21 01:11:00;;;;;;;5.97;5.47;;;14.30;99.90;;;;;;4910182;29;20672;-75
2021/08/21 01:13:26;;;;;;;5.00;4.60;;;14.30;99.90;;;;;;4909136;29;20628;-75
2021/08/21 01:15:52;;;;;;;6.10;5.50;;;14.30;99.90;;;;;;4912382;28;20748;-75
2021/08/21 01:18:21;;;;;;;5.90;5.30;;;14.40;99.90;;;;;;4911557;29;20200;-74
2021/08/21 01:20:47;;;;;;;6.23;5.70;;;14.30;99.90;;;;;;4913688;29;20337;-75
2021/08/21 01:23:14;;;;;;;6.40;5.60;;;14.30;99.90;;;;;;4914787;29;20712;-75
2021/08/21 01:25:40;;;;;;;6.33;5.70;;;14.20;99.90;;;;;;4912577;28;20228;-75
2021/08/21 01:28:05;;;;;;;6.70;6.10;;;14.20;99.90;;;;;;4913370;29;20632;-75
2021/08/21 01:30:31;;;;;;;6.57;5.93;;;14.20;99.90;;;;;;4923098;28;20319;-75
2021/08/21 01:32:59;;;;;;;6.60;5.90;;;14.10;99.90;;;;;;4911199;29;20188;-74
2021/08/21 01:35:27;;;;;;;6.80;5.53;;;14.00;99.90;;;;;;4913021;28;20315;-74
2021/08/21 01:37:54;;;;;;;5.57;5.07;;;14.00;99.90;;;;;;4912118;29;20664;-75
2021/08/21 01:40:22;;;;;;;5.70;5.20;;;14.00;99.90;;;;;;4911095;29;20738;-75
2021/08/21 01:42:50;;;;;;;6.40;5.80;;;14.00;99.90;;;;;;4914690;29;20650;-74
2021/08/21 01:45:16;;;;;;;6.27;5.73;;;14.00;99.90;;;;;;4907881;29;20652;-75
2021/08/21 01:47:43;;;;;;;6.40;5.90;;;14.00;99.90;;;;;;4913053;29;20663;-76
2021/08/21 01:50:17;;;;;;;6.20;5.60;;;14.00;99.90;;;;;;4911586;29;20303;-74
2021/08/21 01:52:48;;;;;;;6.53;5.60;;;14.00;99.90;;;;;;4917302;29;20683;-75
2021/08/21 01:55:17;;;;;;;6.37;5.80;;;14.00;99.90;;;;;;4913490;28;20806;-74
2021/08/21 01:57:45;;;;;;;7.27;6.57;;;14.00;99.90;;;;;;4909595;29;21206;-75
2021/08/21 02:00:11;;;;;;;6.60;5.93;;;14.00;99.90;;;;;;4912827;29;21013;-74
2021/08/21 02:02:37;;;;;;;7.00;6.40;;;13.90;99.90;;;;;;4912389;29;20679;-74
2021/08/21 02:05:06;;;;;;;6.70;6.10;;;13.90;99.90;;;;;;4908550;28;20656;-74
2021/08/21 02:07:31;;;;;;;7.40;6.73;;;13.80;99.90;;;;;;4914869;29;21171;-75
2021/08/21 02:09:57;;;;;;;7.07;6.43;;;13.80;99.90;;;;;;4920393;29;20659;-75
2021/08/21 02:12:23;;;;;;;8.93;8.13;;;13.80;99.90;;;;;;4915136;29;20219;-75
2021/08/21 02:14:51;;;;;;;8.70;7.80;;;13.90;99.90;;;;;;4910535;29;20690;-75
2021/08/21 02:17:16;;;;;;;8.27;7.23;;;13.80;99.90;;;;;;4910129;29;20244;-75
2021/08/21 02:19:42;;;;;;;8.03;7.23;;;13.70;99.90;;;;;;4911826;28;20671;-75
2021/08/21 02:22:07;;;;;;;7.43;6.73;;;13.70;99.90;;;;;;4912253;29;20196;-76
2021/08/21 02:24:34;;;;;;;8.10;7.30;;;13.60;99.90;;;;;;4911963;28;20367;-75
2021/08/21 02:27:03;;;;;;;7.37;6.33;;;13.60;99.90;;;;;;4908201;29;20204;-75
2021/08/21 02:29:32;;;;;;;7.00;6.30;;;13.60;99.90;;;;;;4912148;29;20653;-75
2021/08/21 02:32:00;;;;;;;6.20;5.60;;;13.60;99.90;;;;;;4915622;29;20685;-75
2021/08/21 02:34:28;;;;;;;6.13;5.53;;;13.50;99.90;;;;;;4910639;28;20735;-75
2021/08/21 02:36:57;;;;;;;8.10;6.10;;;13.60;99.90;;;;;;4915755;29;20937;-75
2021/08/21 02:39:22;;;;;;;6.50;6.00;;;13.60;99.90;;;;;;4919665;29;20692;-75
2021/08/21 02:41:48;;;;;;;6.07;5.50;;;13.50;99.90;;;;;;4919562;29;20719;-75
2021/08/21 02:44:19;;;;;;;7.10;6.50;;;13.50;99.90;;;;;;4913378;29;20197;-75
2021/08/21 02:46:47;;;;;;;5.83;5.33;;;13.50;99.90;;;;;;4911060;29;20224;-75
2021/08/21 02:49:21;;;;;;;6.63;6.00;;;13.50;99.90;;;;;;4908246;29;21278;-75
2021/08/21 02:51:49;;;;;;;6.17;5.57;;;13.50;99.90;;;;;;4911865;29;21184;-75
2021/08/21 02:54:15;;;;;;;6.93;5.90;;;13.40;99.90;;;;;;4917664;29;20700;-75
2021/08/21 02:56:40;;;;;;;6.90;6.33;;;13.40;99.90;;;;;;4909832;29;20770;-75
2021/08/21 02:59:08;;;;;;;6.40;5.80;;;13.40;99.90;;;;;;4913286;29;20336;-75
2021/08/21 03:01:34;;;;;;;5.77;5.27;;;13.40;99.90;;;;;;4908107;29;20189;-75
2021/08/21 03:03:59;;;;;;;6.90;6.30;;;13.40;99.90;;;;;;4909991;29;21294;-75
2021/08/21 03:06:25;;;;;;;6.70;6.10;;;13.40;99.90;;;;;;4913718;29;20258;-75
2021/08/21 03:08:52;;;;;;;6.53;5.87;;;13.40;99.90;;;;;;4926951;28;20240;-75
2021/08/21 03:11:18;;;;;;;6.43;5.83;;;13.40;99.90;;;;;;4918766;29;20192;-75
2021/08/21 03:13:43;;;;;;;7.77;7.07;;;13.30;99.90;;;;;;4917300;29;22876;-75
2021/08/21 03:16:10;;;;;;;7.37;6.67;;;13.30;99.90;;;;;;4909637;29;20838;-75
2021/08/21 03:18:38;;;;;;;6.97;6.37;;;13.30;99.90;;;;;;4910805;29;20276;-75
2021/08/21 03:21:03;;;;;;;8.80;7.13;;;13.30;99.90;;;;;;4912373;29;20802;-75
2021/08/21 03:23:31;;;;;;;7.23;6.63;;;13.20;99.90;;;;;;4912892;29;20772;-75
2021/08/21 03:25:59;;;;;;;7.77;6.93;;;13.20;99.90;;;;;;4911935;28;20246;-74
2021/08/21 03:28:25;;;;;;;7.10;6.43;;;13.20;99.90;;;;;;4915628;29;20705;-75
2021/08/21 03:30:50;;;;;;;7.60;6.90;;;13.20;99.90;;;;;;4916092;29;21218;-75
2021/08/21 03:33:16;;;;;;;7.87;7.03;;;13.10;99.90;;;;;;4918293;29;20665;-75
2021/08/21 03:35:43;;;;;;;9.07;8.17;;;13.10;99.90;;;;;;4906598;28;20231;-75
2021/08/21 03:38:08;;;;;;;7.07;6.47;;;13.10;99.90;;;;;;4911927;29;20184;-74
2021/08/21 03:40:34;;;;;;;8.10;7.10;;;13.20;99.90;;;;;;4912478;29;20674;-75
2021/08/21 03:43:07;;;;;;;8.23;7.43;;;13.20;99.90;;;;;;4912676;29;20218;-75
2021/08/21 03:45:32;;;;;;;7.77;7.07;;;13.20;99.90;;;;;;4910847;28;20228;-75
2021/08/21 03:47:58;;;;;;;7.60;6.90;;;13.20;99.90;;;;;;4909411;29;20633;-75
2021/08/21 03:50:31;;;;;;;8.63;7.03;;;13.20;99.90;;;;;;4909133;29;20288;-75
2021/08/21 03:53:00;;;;;;;9.57;7.17;;;13.20;99.90;;;;;;4910383;29;20268;-76
2021/08/21 03:55:30;;;;;;;8.53;6.63;;;13.20;99.90;;;;;;4908615;28;21164;-75
2021/08/21 03:58:03;;;;;;;7.67;6.97;;;13.20;99.90;;;;;;4913071;29;20644;-75
2021/08/21 04:00:28;;;;;;;9.30;6.67;;;13.20;99.90;;;;;;4911974;29;20789;-75
2021/08/21 04:02:57;;;;;;;6.87;6.27;;;13.10;99.90;;;;;;4913089;29;21036;-75
2021/08/21 04:05:29;;;;;;;7.30;6.60;;;13.20;99.90;;;;;;4913541;28;20252;-75
2021/08/21 04:07:55;;;;;;;7.97;7.00;;;13.20;99.90;;;;;;4911503;29;20601;-75
2021/08/21 04:10:21;;;;;;;8.40;7.60;;;13.20;99.90;;;;;;4907506;29;20767;-75
2021/08/21 04:12:47;;;;;;;6.97;6.37;;;13.20;99.90;;;;;;4910310;29;20628;-75
2021/08/21 04:15:14;;;;;;;7.70;6.90;;;13.30;99.90;;;;;;4911256;28;20589;-75
2021/08/21 04:17:42;;;;;;;7.13;6.53;;;13.30;99.90;;;;;;4909503;29;20551;-74
2021/08/21 04:20:08;;;;;;;7.33;6.63;;;13.30;99.90;;;;;;4911677;29;20703;-73
2021/08/21 04:22:37;;;;;;;6.97;5.87;;;13.30;99.90;;;;;;4911881;29;20627;-74
2021/08/21 04:25:03;;;;;;;7.00;6.30;;;13.30;99.90;;;;;;4911444;28;20649;-74
2021/08/21 04:27:33;;;;;;;7.30;6.17;;;13.40;99.90;;;;;;4909374;29;20624;-73
2021/08/21 04:29:58;;;;;;;6.70;6.00;;;13.40;99.90;;;;;;4925113;28;20678;-74
2021/08/21 04:32:24;;;;;;;7.37;6.67;;;13.40;99.90;;;;;;4915826;29;20731;-73
2021/08/21 04:34:51;;;;;;;7.03;6.33;;;13.40;99.90;;;;;;4918260;28;20244;-74
2021/08/21 04:37:19;;;;;;;6.90;6.30;;;13.50;99.90;;;;;;4916132;29;20425;-73
2021/08/21 04:39:47;;;;;;;6.63;6.03;;;13.50;99.90;;;;;;4916948;29;20656;-73
2021/08/21 04:42:15;;;;;;;6.37;5.77;;;13.50;99.90;;;;;;4913656;29;20643;-73
2021/08/21 04:44:41;;;;;;;7.07;6.37;;;13.50;99.90;;;;;;4913266;28;20644;-74
2021/08/21 04:47:09;;;;;;;6.47;5.90;;;13.50;99.90;;;;;;4912210;29;21535;-73
2021/08/21 04:49:36;;;;;;;6.70;6.00;;;13.60;99.90;;;;;;4918136;29;20225;-73
2021/08/21 04:52:02;;;;;;;6.60;6.00;;;13.60;99.90;;;;;;4912504;29;20616;-73
2021/08/21 04:54:28;;;;;;;5.93;5.33;;;13.60;99.90;;;;;;4914566;28;20633;-74
2021/08/21 04:56:56;;;;;;;6.70;6.00;;;13.60;99.90;;;;;;4915440;29;20654;-74
2021/08/21 04:59:24;;;;;;;7.00;6.33;;;13.70;99.90;;;;;;4915594;29;20217;-73
2021/08/21 05:01:49;;;;;;;6.23;5.63;;;13.70;99.90;;;;;;4918435;29;20612;-75
2021/08/21 05:04:15;;;;;;;6.67;5.97;;;13.70;99.90;;;;;;4912726;29;20619;-75
2021/08/21 05:06:40;;;;;;;6.10;5.50;;;13.70;99.90;;;;;;4916147;29;20224;-75
2021/08/21 05:09:08;;;;;;;6.90;6.10;;;13.70;99.90;;;;;;4914144;29;20584;-75
2021/08/21 05:11:36;;;;;;;6.40;5.80;;;13.70;99.90;;;;;;4913213;29;20259;-77
2021/08/21 05:14:09;;;;;;;6.50;5.80;;;13.70;99.90;;;;;;4930203;29;20624;-75
2021/08/21 05:16:36;;;;;;;6.10;5.50;;;13.70;99.90;;;;;;4915626;28;20648;-77
2021/08/21 05:19:10;;;;;;;9.90;6.60;;;13.80;99.90;;;;;;4917098;29;20628;-75
2021/08/21 05:21:47;;;;;;;6.17;5.57;;;13.80;99.90;;;;;;4917324;29;20653;-75
2021/08/21 05:24:17;;;;;;;7.30;6.00;;;13.80;99.90;;;;;;4917079;29;20990;-75
2021/08/21 05:26:44;;;;;;;6.37;5.77;;;13.90;99.90;;;;;;4916589;28;20652;-75
2021/08/21 05:29:12;;;;;;;6.00;5.40;;;13.80;99.90;;;;;;4912776;29;21459;-75
2021/08/21 05:31:41;;;;;;;6.70;5.60;;;13.90;99.90;;;;;;4918398;29;20703;-75
2021/08/21 05:34:10;;;;;;;6.57;5.60;;;13.90;99.90;;;;;;4916875;29;20952;-75
2021/08/21 05:36:35;;;;;;;7.20;6.50;;;13.90;99.90;;;;;;4921876;28;20750;-75
2021/08/21 05:39:01;;;;;;;6.33;5.73;;;14.00;99.90;;;;;;4919488;29;20751;-78
2021/08/21 05:41:29;;;;;;;7.37;6.67;;;14.00;99.90;;;;;;4913192;29;20201;-77
2021/08/21 05:43:58;;;;;;;8.90;8.00;;;14.10;99.90;;;;;;4915871;29;20200;-75
2021/08/21 05:46:23;;;;;;;8.50;7.60;;;14.20;99.90;;;;;;4919932;29;20643;-76
2021/08/21 05:48:49;;;;;;;9.00;8.10;;;14.20;99.90;;;;;;4917012;29;20633;-75
2021/08/21 05:51:19;;;;;;;8.57;7.70;;;14.30;99.90;;;;;;4922173;29;20223;-74
2021/08/21 05:53:44;;;;;;;8.20;7.43;;;14.50;99.90;;;;;;4922925;29;20184;-75
2021/08/21 05:56:13;;;;;;;8.40;7.33;;;14.50;99.90;;;;;;4915806;28;20668;-75
2021/08/21 05:58:41;;;;;;;8.30;7.50;;;14.50;99.90;;;;;;4914382;29;20241;-75
2021/08/21 06:01:06;;;;;;;8.97;8.07;;;14.70;99.90;;;;;;4918164;29;20742;-76
2021/08/21 06:03:34;;;;;;;8.40;7.60;;;14.70;99.90;;;;;;4912562;29;20627;-76
2021/08/21 06:06:02;;;;;;;7.43;6.73;;;14.80;99.90;;;;;;4913982;28;20224;-77
2021/08/21 06:08:27;;;;;;;7.73;7.00;;;14.90;99.90;;;;;;4927877;29;21055;-78
2021/08/21 06:10:55;;;;;;;7.07;6.37;;;15.00;99.90;;;;;;4928385;29;20665;-75
2021/08/21 06:13:20;;;;;;;7.83;7.07;;;15.00;99.90;;;;;;4928371;29;20193;-77
2021/08/21 06:15:46;;;;;;;8.03;6.90;;;15.10;99.90;;;;;;4924510;28;20643;-77
2021/08/21 06:18:11;;;;;;;8.13;6.80;;;15.20;99.90;;;;;;4924837;29;20196;-76
2021/08/21 06:20:37;;;;;;;8.57;7.77;;;15.30;99.90;;;;;;4920664;29;20858;-76
2021/08/21 06:23:05;;;;;;;7.70;6.77;;;15.30;99.90;;;;;;4921416;29;20215;-77
2021/08/21 06:25:31;;;;;;;8.27;7.00;;;15.40;99.90;;;;;;4921783;28;21027;-75
2021/08/21 06:27:57;;;;;;;8.50;6.20;;;15.50;99.90;;;;;;4921170;29;20633;-77
2021/08/21 06:30:22;;;;;;;7.20;6.37;;;15.60;99.90;;;;;;4919284;29;20267;-75
2021/08/21 06:32:48;;;;;;;7.80;6.30;;;15.70;99.90;;;;;;4918013;29;20712;-79
2021/08/21 06:35:14;;;;;;;7.60;6.80;;;15.70;99.90;;;;;;4923023;28;23072;-76
2021/08/21 06:37:39;;;;;;;7.40;6.70;;;15.80;99.90;;;;;;4927961;29;20592;-76
2021/08/21 06:40:05;;;;;;;6.60;5.90;;;15.80;99.90;;;;;;4921276;29;20213;-76
2021/08/21 06:42:31;;;;;;;6.40;5.80;;;15.90;99.90;;;;;;4919463;29;20236;-76
2021/08/21 06:44:56;;;;;;;6.40;5.77;;;16.00;99.90;;;;;;4915094;29;20727;-79
2021/08/21 06:47:22;;;;;;;6.07;5.50;;;16.10;99.90;;;;;;4917296;29;20669;-76
2021/08/21 06:49:47;;;;;;;5.57;5.07;;;16.10;99.90;;;;;;4927708;29;20230;-79
2021/08/21 06:52:13;;;;;;;5.87;5.20;;;16.20;99.90;;;;;;4922037;29;20252;-77
2021/08/21 06:54:39;;;;;;;5.13;4.70;;;16.20;99.90;;;;;;4920248;28;20685;-77
2021/08/21 06:57:04;;;;;;;5.17;4.67;;;16.30;99.90;;;;;;4917415;29;20216;-80
2021/08/21 06:59:30;;;;;;;5.40;4.93;;;16.40;99.90;;;;;;4920566;29;20740;-77
2021/08/21 07:01:55;;;;;;;5.20;4.50;;;16.40;99.90;;;;;;4921844;29;20721;-83
2021/08/21 07:04:21;;;;;;;5.50;4.50;;;16.50;99.90;;;;;;4920576;28;20189;-78
2021/08/21 07:06:46;;;;;;;5.30;4.80;;;16.50;99.90;;;;;;4926593;29;20899;-77
2021/08/21 07:09:12;;;;;;;4.73;4.33;;;16.60;99.90;;;;;;4927843;29;20209;-78
2021/08/21 07:11:37;;;;;;;6.27;4.60;;;16.70;99.90;;;;;;4919720;29;20566;-80
2021/08/21 07:14:03;;;;;;;4.50;4.10;;;16.80;99.90;;;;;;4921423;29;20191;-78
2021/08/21 07:16:28;;;;;;;4.63;4.00;;;16.80;99.90;;;;;;4923694;28;20228;-78
2021/08/21 07:18:54;;;;;;;4.07;3.77;;;16.80;99.90;;;;;;4917758;29;20201;-78
2021/08/21 07:21:21;;;;;;;5.93;4.37;;;16.90;99.90;;;;;;4918840;29;20188;-75
2021/08/21 07:23:48;;;;;;;5.40;4.10;;;16.90;99.90;;;;;;4918462;29;20212;-79
2021/08/21 07:26:14;;;;;;;3.90;3.60;;;17.00;99.90;;;;;;4920288;28;20743;-77
2021/08/21 07:28:39;;;;;;;5.87;3.90;;;17.00;99.90;;;;;;4918862;29;21443;-78
2021/08/21 07:31:05;;;;;;;5.03;3.73;;;17.10;99.90;;;;;;4913113;29;20303;-81
2021/08/21 07:33:30;;;;;;;4.20;3.90;;;17.20;99.90;;;;;;4931807;28;20225;-79
2021/08/21 07:35:56;;;;;;;3.60;3.30;;;17.20;99.90;;;;;;4919913;28;20228;-82
2021/08/21 07:38:24;;;;;;;3.40;3.10;;;17.30;99.90;;;;;;4916454;29;20188;-80
2021/08/21 07:40:51;;;;;;;3.60;3.30;;;17.40;99.90;;;;;;4915383;29;20204;-78
2021/08/21 07:43:16;;;;;;;3.73;3.43;;;17.40;99.90;;;;;;4914128;29;20609;-82
2021/08/21 07:45:45;;;;;;;3.03;2.83;;;17.50;99.90;;;;;;4918076;28;21001;-81
2021/08/21 07:48:11;;;;;;;4.20;3.50;;;17.60;99.90;;;;;;4919606;29;20625;-80
2021/08/21 07:50:37;;;;;;;3.13;2.83;;;17.70;99.90;;;;;;4918348;29;20755;-80
2021/08/21 07:53:02;;;;;;;4.50;3.10;;;17.70;99.90;;;;;;4923041;29;20191;-80
2021/08/21 07:55:28;;;;;;;3.30;3.00;;;17.80;99.90;;;;;;4921577;28;20220;-80
2021/08/21 07:57:54;;;;;;;3.20;3.00;;;17.90;99.90;;;;;;4917883;29;20758;-79
2021/08/21 08:00:22;;;;;;;2.90;2.70;;;17.90;99.90;;;;;;4921808;29;20221;-82
2021/08/21 08:02:47;;;;;;;2.57;2.33;;;17.90;99.90;;;;;;4925630;29;20243;-80
2021/08/21 08:05:13;;;;;;;3.10;2.90;;;18.00;99.90;;;;;;4922405;29;20628;-79
2021/08/21 08:07:39;;;;;;;3.13;2.83;;;18.10;99.90;;;;;;4921751;29;20196;-81
2021/08/21 08:10:05;;;;;;;3.10;2.80;;;18.20;99.90;;;;;;4917537;29;20655;-83
2021/08/21 08:12:31;;;;;;;2.40;2.30;;;18.30;99.90;;;;;;4922606;29;20234;-82
2021/08/21 08:14:56;;;;;;;2.80;2.60;;;18.40;99.90;;;;;;4917364;28;20715;-79
2021/08/21 08:17:24;;;;;;;3.30;3.00;;;18.50;99.90;;;;;;4922241;29;20214;-83
2021/08/21 08:19:50;;;;;;;2.63;2.43;;;18.60;99.90;;;;;;4916180;29;20242;-77
2021/08/21 08:22:15;;;;;;;2.47;2.27;;;18.70;99.90;;;;;;4919677;29;20624;-80
2021/08/21 08:24:41;;;;;;;2.83;2.60;;;18.70;99.90;;;;;;4919983;29;20255;-80
2021/08/21 08:27:06;;;;;;;2.57;2.37;;;18.80;99.90;;;;;;4918041;29;20234;-81
2021/08/21 08:29:32;;;;;;;4.53;2.77;;;18.90;99.90;;;;;;4929919;29;20239;-79
2021/08/21 08:31:57;;;;;;;3.70;2.90;;;18.90;99.90;;;;;;4916158;29;21398;-79
2021/08/21 08:34:23;;;;;;;2.50;2.40;;;18.90;99.90;;;;;;4917179;28;20236;-79
2021/08/21 08:36:48;;;;;;;2.80;2.60;;;19.00;99.90;;;;;;4916235;29;20204;-79
2021/08/21 08:39:14;;;;;;;2.60;2.40;;;19.00;99.90;;;;;;4916514;29;20508;-79
2021/08/21 08:41:42;;;;;;;2.67;2.47;;;19.10;99.90;;;;;;4922602;29;20981;-80
2021/08/21 08:44:11;;;;;;;2.70;2.20;;;19.20;99.90;;;;;;4921142;29;20207;-80
2021/08/21 08:46:38;;;;;;;2.47;2.27;;;19.20;99.90;;;;;;4923459;29;20652;-79
2021/08/21 08:49:06;;;;;;;2.63;2.37;;;19.20;99.90;;;;;;4927425;29;20619;-80
2021/08/21 08:51:33;;;;;;;2.63;2.40;;;19.30;99.90;;;;;;4930791;29;20627;-84
2021/08/21 08:53:58;;;;;;;2.80;2.60;;;19.30;99.90;;;;;;4921272;29;20608;-81
2021/08/21 08:56:24;;;;;;;2.27;2.00;;;19.50;99.90;;;;;;4920812;28;21038;-82
2021/08/21 08:58:50;;;;;;;2.30;2.20;;;19.50;99.90;;;;;;4924433;29;20190;-80
2021/08/21 09:01:15;;;;;;;2.20;2.00;;;19.60;99.90;;;;;;4924280;29;20291;-79
2021/08/21 09:03:41;;;;;;;2.30;2.20;;;19.60;99.90;;;;;;4926163;29;20220;-78
2021/08/21 09:06:11;;;;;;;2.50;2.10;;;19.70;99.90;;;;;;4921499;28;20220;-81
2021/08/21 09:08:37;;;;;;;2.33;2.00;;;19.70;99.90;;;;;;4922434;29;20212;-82
2021/08/21 09:11:22;;;;;;;1.93;1.80;;;19.70;99.90;;;;;;4921637;29;21207;-81
2021/08/21 09:13:48;;;;;;;3.00;1.90;;;19.80;99.90;;;;;;4920817;29;20181;-79
2021/08/21 09:16:25;;;;;;;2.20;2.00;;;19.80;99.90;;;;;;4930862;29;20747;-80
2021/08/21 09:19:04;;;;;;;2.50;2.30;;;19.80;99.90;;;;;;4927326;29;20627;-81
2021/08/21 09:21:31;;;;;;;2.23;2.03;;;19.90;99.90;;;;;;4918646;29;20632;-79
2021/08/21 09:23:57;;;;;;;2.10;1.90;;;20.00;99.90;;;;;;4922226;29;20617;-78
2021/08/21 09:26:30;;;;;;;2.00;1.80;;;20.00;99.90;;;;;;4917642;28;21005;-82
2021/08/21 09:28:59;;;;;;;2.20;1.77;;;20.10;99.90;;;;;;4919484;29;20609;-78
2021/08/21 09:31:28;;;;;;;1.90;1.80;;;20.20;99.90;;;;;;4916518;29;20632;-81
2021/08/21 09:34:00;;;;;;;2.87;2.10;;;20.30;99.90;;;;;;4917519;29;21252;-79
2021/08/21 09:36:38;;;;;;;2.50;2.30;;;20.40;99.90;;;;;;4919018;28;20662;-81
2021/08/21 09:39:09;;;;;;;2.10;1.80;;;20.50;99.90;;;;;;4922983;29;20634;-81
2021/08/21 09:41:54;;;;;;;1.87;1.77;;;20.50;99.90;;;;;;4917645;29;21247;-78
2021/08/21 09:44:31;;;;;;;2.13;1.93;;;20.60;99.90;;;;;;4921101;28;20680;-78
2021/08/21 09:47:24;;;;;;;2.20;1.50;;;20.70;99.90;;;;;;4920216;29;21073;-79
2021/08/21 09:49:50;;;;;;;4.90;2.17;;;20.80;99.90;;;;;;4920269;29;20695;-79
2021/08/21 09:52:17;;;;;;;2.00;1.90;;;20.80;99.90;;;;;;4923879;29;20727;-81
2021/08/21 09:54:48;;;;;;;1.90;1.80;;;20.80;99.90;;;;;;4925257;28;20646;-79
2021/08/21 09:57:21;;;;;;;1.73;1.63;;;20.90;99.90;;;;;;4921427;29;20623;-80
2021/08/21 09:59:55;;;;;;;2.90;1.70;;;20.90;99.90;;;;;;4921039;29;20635;-78
2021/08/21 10:02:21;;;;;;;1.50;1.40;;;21.10;99.90;;;;;;4920873;29;20607;-78
2021/08/21 10:04:47;;;;;;;2.43;1.63;;;21.00;99.90;;;;;;4922999;28;20617;-79
2021/08/21 10:07:19;;;;;;;2.00;1.90;;;21.00;99.90;;;;;;4922721;29;21355;-79
2021/08/21 10:09:45;;;;;;;2.97;2.03;;;21.00;99.90;;;;;;4923215;29;20631;-80
2021/08/21 10:12:12;;;;;;;1.60;1.50;;;21.00;99.90;;;;;;4926757;29;20688;-81
2021/08/21 10:14:44;;;;;;;1.90;1.80;;;21.00;99.90;;;;;;4922584;28;20719;-78
2021/08/21 10:17:10;;;;;;;1.63;1.53;;;21.10;99.90;;;;;;4923261;29;20743;-79
2021/08/21 10:19:40;;;;;;;1.90;1.80;;;21.20;99.90;;;;;;4928719;29;20643;-80
2021/08/21 10:22:08;;;;;;;2.03;1.50;;;21.20;99.90;;;;;;4920756;29;20619;-80
2021/08/21 10:24:42;;;;;;;2.07;1.70;;;21.30;99.90;;;;;;4920626;28;20699;-82
2021/08/21 10:27:20;;;;;;;2.07;1.67;;;21.40;99.90;;;;;;4920934;29;20631;-79
2021/08/21 10:30:13;;;;;;;1.80;1.70;;;21.40;99.90;;;;;;4922705;29;20631;-83
2021/08/21 10:32:51;;;;;;;2.07;1.97;;;21.50;99.90;;;;;;4920655;29;21223;-83
2021/08/21 10:35:16;;;;;;;1.97;1.50;;;21.50;99.90;;;;;;4924519;28;20628;-79
2021/08/21 10:37:47;;;;;;;1.40;1.30;;;21.60;99.90;;;;;;4923232;29;20651;-79
2021/08/21 10:40:28;;;;;;;1.70;1.60;;;21.60;99.90;;;;;;4922278;29;20215;-78
2021/08/21 10:42:54;;;;;;;1.87;1.77;;;21.70;99.90;;;;;;4927690;29;20601;-79
2021/08/21 10:45:38;;;;;;;1.77;1.67;;;21.80;99.90;;;;;;4926818;28;20645;-81
2021/08/21 10:48:05;;;;;;;1.97;1.60;;;21.90;99.90;;;;;;4921516;29;21255;-82
2021/08/21 10:50:36;;;;;;;3.03;2.13;;;21.90;99.90;;;;;;4925042;29;21252;-80
2021/08/21 10:53:03;;;;;;;2.13;1.60;;;22.00;99.90;;;;;;4924575;29;20663;-82
2021/08/21 10:55:45;;;;;;;1.63;1.53;;;22.00;99.90;;;;;;4924718;29;20647;-80
2021/08/21 10:58:22;;;;;;;2.00;1.90;;;22.20;99.90;;;;;;4932959;29;20657;-80
2021/08/21 11:00:55;;;;;;;2.20;2.00;;;22.20;99.90;;;;;;4920237;29;20640;-79
2021/08/21 11:03:24;;;;;;;2.00;1.90;;;22.10;99.90;;;;;;4921986;29;20614;-80
2021/08/21 11:05:51;;;;;;;2.20;2.10;;;22.10;99.90;;;;;;4921453;28;20718;-79
2021/08/21 11:08:18;;;;;;;2.37;1.77;;;22.20;99.90;;;;;;4921505;29;21003;-79
2021/08/21 11:10:43;;;;;;;1.97;1.87;;;22.20;99.90;;;;;;4926338;29;20640;-79
2021/08/21 11:13:10;;;;;;;1.70;1.60;;;22.40;99.90;;;;;;4920167;29;20683;-85
2021/08/21 11:15:36;;;;;;;2.00;1.90;;;22.30;99.90;;;;;;4924355;28;20251;-79
2021/08/21 11:18:05;;;;;;;2.20;1.50;;;22.30;99.90;;;;;;4923466;29;20664;-82
2021/08/21 11:20:37;;;;;;;2.73;1.57;;;22.40;99.90;;;;;;4921936;29;21226;-80
2021/08/21 11:23:09;;;;;;;2.53;1.87;;;22.40;99.90;;;;;;4922267;29;20634;-79
2021/08/21 11:25:36;;;;;;;1.70;1.50;;;22.60;99.90;;;;;;4920804;29;21258;-81
2021/08/21 11:28:06;;;;;;;1.30;1.20;;;22.60;99.90;;;;;;4920436;29;20629;-81
2021/08/21 11:30:37;;;;;;;1.63;1.53;;;22.80;99.90;;;;;;4923559;29;21091;-82
2021/08/21 11:33:10;;;;;;;4.20;1.70;;;22.90;99.90;;;;;;4924704;29;20621;-83
2021/08/21 11:35:46;;;;;;;2.57;1.73;;;23.00;99.90;;;;;;4920125;28;20916;-83
2021/08/21 11:38:13;;;;;;;2.23;1.40;;;23.20;99.90;;;;;;4920567;29;20734;-80
2021/08/21 11:40:43;;;;;;;1.57;1.47;;;23.30;99.90;;;;;;4920347;29;21181;-83
2021/08/21 11:43:13;;;;;;;1.63;1.53;;;23.50;99.90;;;;;;4935131;28;20694;-81
2021/08/21 11:45:40;;;;;;;1.50;1.40;;;23.60;99.90;;;;;;4919288;28;20636;-81
2021/08/21 11:48:06;;;;;;;1.60;1.50;;;23.60;99.90;;;;;;4919743;29;20683;-81
2021/08/21 11:50:37;;;;;;;1.40;1.30;;;23.70;99.90;;;;;;4921818;29;20660;-84
2021/08/21 11:53:08;;;;;;;1.63;1.53;;;23.80;99.90;;;;;;4919800;29;20700;-81
2021/08/21 11:55:35;;;;;;;1.97;1.50;;;24.10;99.90;;;;;;4936519;28;21022;-83
2021/08/21 11:58:02;;;;;;;2.27;1.40;;;24.10;99.90;;;;;;4921589;29;20714;-83
2021/08/21 12:00:33;;;;;;;1.63;1.53;;;24.30;99.90;;;;;;4920847;29;21278;-83
2021/08/21 12:03:05;;;;;;;1.90;1.37;;;24.40;99.90;;;;;;4922226;29;20687;-83
2021/08/21 12:05:50;;;;;;;1.63;1.30;;;24.60;99.90;;;;;;4918738;29;20642;-84
2021/08/21 12:08:19;;;;;;;1.60;1.50;;;24.70;99.90;;;;;;4917247;29;20632;-82
2021/08/21 12:10:53;;;;;;;1.47;1.37;;;24.70;99.90;;;;;;4921253;29;20664;-83
2021/08/21 12:13:36;;;;;;;1.60;1.50;;;24.90;99.90;;;;;;4927529;29;20640;-82
2021/08/21 12:16:13;;;;;;;1.33;1.23;;;25.00;99.90;;;;;;4922596;28;20715;-84
2021/08/21 12:18:41;;;;;;;1.53;1.43;;;25.00;99.90;;;;;;4915841;29;20643;-83
2021/08/21 12:21:09;;;;;;;1.80;1.40;;;25.10;99.90;;;;;;4922544;29;20677;-82
2021/08/21 12:23:35;;;;;;;1.60;1.50;;;25.20;99.90;;;;;;4920323;29;20621;-83
2021/08/21 12:26:02;;;;;;;4.63;1.63;;;25.40;99.90;;;;;;4922185;28;20649;-82
2021/08/21 12:28:35;;;;;;;1.50;1.40;;;25.30;99.90;;;;;;4921845;29;20620;-79
2021/08/21 12:31:07;;;;;;;1.20;1.10;;;25.30;99.90;;;;;;4927315;29;20937;-81
2021/08/21 12:33:36;;;;;;;;;;;25.40;99.90;;;;;;4920492;29;20452;-79
2021/08/21 12:36:09;;;;;;;;;;;25.50;99.90;;;;;;4917815;28;19923;-78
2021/08/21 12:38:35;;;;;;;;;;;25.50;99.90;;;;;;4919344;29;19915;-80
2021/08/21 12:41:08;;;;;;;;;;;25.40;99.90;;;;;;4916659;29;19983;-83
2021/08/21 12:43:33;;;;;;;;;;;25.40;99.90;;;;;;4918066;29;19911;-81
2021/08/21 12:45:59;;;;;;;;;;;25.40;99.90;;;;;;4916616;28;19919;-79
2021/08/21 12:48:25;;;;;;;;;;;25.50;99.90;;;;;;4924146;29;19943;-79
2021/08/21 12:50:50;;;;;;;;;;;25.60;99.90;;;;;;4917067;29;19922;-84
2021/08/21 12:53:24;;;;;;;;;;;25.60;99.90;;;;;;4914739;29;19915;-81
2021/08/21 12:56:05;;;;;;;;;;;25.60;99.90;;;;;;4911102;28;20445;-80